Time;durP1;ratioP1;P1;durP2;ratioP2;P2;SDS_P1;SDS_P2;PMS_P1;PMS_P2;Temp;Humidity;BMP_temperature;BMP_pressure;BME280_temperature;BME280_humidity;BME280_pressure;Samples;Min_cycle;Max_cycle;Signal;HPM_P1;HPM_P2
2023/05/06 00:01:00;;;;;;;30.58;24.70;;;13.70;99.90;;;;;;5055908;28;20104;-73
2023/05/06 00:03:27;;;;;;;34.00;26.05;;;13.70;99.90;;;;;;5069065;28;20146;-73
2023/05/06 00:05:53;;;;;;;28.65;23.92;;;13.60;99.90;;;;;;5076462;28;20066;-73
2023/05/06 00:08:18;;;;;;;27.83;23.50;;;13.50;99.90;;;;;;5091121;28;20040;-73
2023/05/06 00:10:44;;;;;;;26.83;21.27;;;13.50;99.90;;;;;;5070570;28;20052;-74
2023/05/06 00:13:10;;;;;;;31.60;25.25;;;13.70;99.90;;;;;;5085394;28;20040;-74
2023/05/06 00:15:36;;;;;;;33.80;25.92;;;13.90;99.90;;;;;;5060527;28;20048;-73
2023/05/06 00:18:01;;;;;;;26.67;21.35;;;13.70;99.90;;;;;;5076956;28;20048;-73
2023/05/06 00:20:27;;;;;;;28.48;22.15;;;13.90;99.90;;;;;;5059266;28;20050;-74
2023/05/06 00:22:53;;;;;;;29.20;22.33;;;13.90;99.90;;;;;;5080784;28;20135;-74
2023/05/06 00:25:19;;;;;;;27.73;22.45;;;13.90;99.90;;;;;;5082008;28;20044;-74
2023/05/06 00:27:45;;;;;;;25.35;20.23;;;14.00;99.90;;;;;;5056996;28;20041;-74
2023/05/06 00:30:11;;;;;;;24.83;21.17;;;14.00;99.90;;;;;;5091489;28;20147;-74
2023/05/06 00:32:37;;;;;;;26.90;19.83;;;14.10;99.90;;;;;;5085925;28;20051;-73
2023/05/06 00:35:03;;;;;;;26.63;21.38;;;14.10;99.90;;;;;;5062106;28;20044;-74
2023/05/06 00:37:29;;;;;;;28.73;20.77;;;14.10;99.90;;;;;;5075603;28;20101;-74
2023/05/06 00:39:55;;;;;;;26.83;20.90;;;14.10;99.90;;;;;;5057389;28;20048;-74
2023/05/06 00:42:22;;;;;;;28.92;21.23;;;14.10;99.90;;;;;;5073193;28;20067;-74
2023/05/06 00:44:48;;;;;;;25.27;20.83;;;14.20;99.90;;;;;;5056903;28;20456;-74
2023/05/06 00:47:14;;;;;;;27.15;20.92;;;14.20;99.90;;;;;;5060199;28;20048;-74
2023/05/06 00:49:40;;;;;;;26.67;22.42;;;14.20;99.90;;;;;;5070858;28;20051;-74
2023/05/06 00:52:05;;;;;;;26.90;21.45;;;14.20;99.90;;;;;;5058154;28;20039;-74
2023/05/06 00:54:31;;;;;;;28.55;21.73;;;14.20;99.90;;;;;;5058885;28;20443;-74
2023/05/06 00:56:57;;;;;;;27.70;21.77;;;14.20;99.90;;;;;;5070585;28;20338;-74
2023/05/06 00:59:23;;;;;;;26.25;21.05;;;14.20;99.90;;;;;;5058415;28;20081;-74
2023/05/06 01:01:51;;;;;;;31.05;23.52;;;14.20;99.90;;;;;;5057146;28;20086;-74
2023/05/06 01:04:17;;;;;;;27.02;22.02;;;14.20;99.90;;;;;;5084499;28;20115;-74
2023/05/06 01:06:54;;;;;;;25.83;21.25;;;14.20;99.90;;;;;;5056929;28;20794;-74
2023/05/06 01:09:46;;;;;;;28.85;23.65;;;14.20;99.90;;;;;;5067783;28;20044;-74
2023/05/06 01:12:42;;;;;;;26.65;22.70;;;14.20;99.90;;;;;;5062768;28;20669;-73
2023/05/06 01:15:13;;;;;;;28.30;23.75;;;14.20;99.90;;;;;;5082330;28;20044;-74
2023/05/06 01:17:41;;;;;;;30.98;23.00;;;14.10;99.90;;;;;;5063440;28;20441;-74
2023/05/06 01:20:09;;;;;;;27.88;21.15;;;14.20;99.90;;;;;;5059528;28;20079;-74
2023/05/06 01:22:36;;;;;;;23.65;20.42;;;14.10;99.90;;;;;;5084107;28;20054;-74
2023/05/06 01:25:01;;;;;;;39.83;26.65;;;14.10;99.90;;;;;;5069443;28;20051;-74
2023/05/06 01:27:27;;;;;;;29.70;24.98;;;14.00;99.90;;;;;;5053192;28;20036;-74
2023/05/06 01:29:53;;;;;;;27.60;23.60;;;14.00;99.90;;;;;;5059379;28;20197;-74
2023/05/06 01:32:25;;;;;;;26.88;21.45;;;14.00;99.90;;;;;;5050658;28;20040;-74
2023/05/06 01:35:11;;;;;;;29.90;24.27;;;14.00;99.90;;;;;;5087333;28;21799;-73
2023/05/06 01:37:58;;;;;;;29.15;23.17;;;14.10;99.90;;;;;;5086776;28;20522;-74
2023/05/06 01:40:25;;;;;;;27.75;21.80;;;14.00;99.90;;;;;;5088256;28;20083;-74
2023/05/06 01:42:51;;;;;;;30.35;21.70;;;14.00;99.90;;;;;;5038722;28;20064;-74
2023/05/06 01:45:18;;;;;;;25.50;21.60;;;14.00;99.90;;;;;;5074330;28;20502;-74
2023/05/06 01:47:45;;;;;;;27.53;22.00;;;14.00;99.90;;;;;;5073473;28;20040;-74
2023/05/06 01:50:11;;;;;;;26.45;21.50;;;14.00;99.90;;;;;;5051388;28;20052;-75
2023/05/06 01:52:36;;;;;;;24.92;20.05;;;14.00;99.90;;;;;;5070952;28;20044;-74
2023/05/06 01:55:03;;;;;;;25.70;20.35;;;14.00;99.90;;;;;;5091715;28;20058;-74
2023/05/06 01:57:28;;;;;;;24.42;20.42;;;14.00;99.90;;;;;;5057198;28;20456;-74
2023/05/06 01:59:54;;;;;;;26.30;21.42;;;14.00;99.90;;;;;;5064186;28;20087;-74
2023/05/06 02:02:20;;;;;;;26.45;21.80;;;14.00;99.90;;;;;;5055999;28;20044;-74
2023/05/06 02:04:45;;;;;;;26.70;22.77;;;14.00;99.90;;;;;;5049928;28;20055;-74
2023/05/06 02:07:11;;;;;;;25.55;21.67;;;14.00;99.90;;;;;;5074108;28;20055;-74
2023/05/06 02:09:37;;;;;;;28.48;22.05;;;14.00;99.90;;;;;;5071856;28;20114;-74
2023/05/06 02:12:03;;;;;;;27.17;23.17;;;14.00;99.90;;;;;;5074005;28;20043;-75
2023/05/06 02:14:29;;;;;;;28.85;21.10;;;14.00;99.90;;;;;;5062224;28;20051;-74
2023/05/06 02:16:54;;;;;;;26.63;20.60;;;14.00;99.90;;;;;;5071335;28;20048;-74
2023/05/06 02:19:20;;;;;;;25.58;20.38;;;14.00;99.90;;;;;;5083366;28;20059;-75
2023/05/06 02:21:46;;;;;;;23.65;20.23;;;14.00;99.90;;;;;;5078648;28;20114;-74
2023/05/06 02:24:11;;;;;;;24.08;20.13;;;14.00;99.90;;;;;;5069733;28;20047;-74
2023/05/06 02:26:38;;;;;;;24.27;19.60;;;14.00;99.90;;;;;;5089384;28;20651;-74
2023/05/06 02:29:04;;;;;;;26.35;20.63;;;14.00;99.90;;;;;;5068181;28;20044;-74
2023/05/06 02:31:30;;;;;;;27.30;21.08;;;14.00;99.90;;;;;;5085950;28;20063;-75
2023/05/06 02:33:56;;;;;;;26.60;22.23;;;14.00;99.90;;;;;;5089009;28;20615;-74
2023/05/06 02:36:22;;;;;;;26.83;21.88;;;13.90;99.90;;;;;;5086969;28;20112;-74
2023/05/06 02:38:47;;;;;;;30.63;22.75;;;13.90;99.90;;;;;;5088966;28;20048;-74
2023/05/06 02:41:13;;;;;;;28.08;21.27;;;13.90;99.90;;;;;;5056866;28;20425;-74
2023/05/06 02:43:39;;;;;;;26.52;21.50;;;13.90;99.90;;;;;;5070286;28;20067;-74
2023/05/06 02:46:04;;;;;;;27.27;23.15;;;13.90;99.90;;;;;;5068389;28;20488;-74
2023/05/06 02:48:30;;;;;;;33.20;25.80;;;13.90;99.90;;;;;;5088086;28;20483;-74
2023/05/06 02:50:56;;;;;;;35.25;28.10;;;13.80;99.90;;;;;;5059296;28;20460;-74
2023/05/06 02:53:21;;;;;;;39.95;30.02;;;13.80;99.90;;;;;;5071755;28;20051;-74
2023/05/06 02:55:47;;;;;;;43.17;32.47;;;13.60;99.90;;;;;;5058674;28;20048;-74
2023/05/06 02:58:13;;;;;;;35.25;27.42;;;13.40;99.90;;;;;;5038615;28;20044;-74
2023/05/06 03:00:39;;;;;;;36.22;27.83;;;13.40;99.90;;;;;;5066907;28;20040;-74
2023/05/06 03:03:04;;;;;;;35.08;26.33;;;13.50;99.90;;;;;;5087626;28;20055;-74
2023/05/06 03:05:30;;;;;;;34.28;26.70;;;13.30;99.90;;;;;;5067102;28;20119;-74
2023/05/06 03:07:56;;;;;;;32.30;25.52;;;13.30;99.90;;;;;;5061890;28;20162;-74
2023/05/06 03:10:22;;;;;;;30.52;24.90;;;13.20;99.90;;;;;;5072241;28;20454;-74
2023/05/06 03:12:48;;;;;;;27.38;21.42;;;13.20;99.90;;;;;;5073646;28;20060;-74
2023/05/06 03:15:13;;;;;;;28.35;23.38;;;13.20;99.90;;;;;;5077160;28;20189;-74
2023/05/06 03:17:39;;;;;;;27.70;22.80;;;13.30;99.90;;;;;;5088652;28;20047;-73
2023/05/06 03:20:07;;;;;;;31.33;24.30;;;13.30;99.90;;;;;;5078197;28;20040;-74
2023/05/06 03:22:33;;;;;;;31.80;26.65;;;13.30;99.90;;;;;;5070252;28;20044;-74
2023/05/06 03:24:58;;;;;;;30.17;23.77;;;13.20;99.90;;;;;;5069399;28;20070;-73
2023/05/06 03:27:24;;;;;;;31.70;23.67;;;13.20;99.90;;;;;;5068167;28;20036;-74
2023/05/06 03:29:50;;;;;;;27.08;22.85;;;13.20;99.90;;;;;;5057612;28;20048;-74
2023/05/06 03:32:16;;;;;;;30.02;24.52;;;13.30;99.90;;;;;;5069242;28;20040;-74
2023/05/06 03:34:43;;;;;;;27.27;22.17;;;13.20;99.90;;;;;;5089390;28;20055;-73
2023/05/06 03:37:09;;;;;;;24.40;21.05;;;13.20;99.90;;;;;;5090767;28;20040;-74
2023/05/06 03:39:35;;;;;;;28.13;22.95;;;13.30;99.90;;;;;;5059531;28;20055;-73
2023/05/06 03:42:01;;;;;;;22.90;19.27;;;13.20;99.90;;;;;;5074886;28;20614;-74
2023/05/06 03:44:26;;;;;;;27.23;22.35;;;13.30;99.90;;;;;;5044833;28;20059;-74
2023/05/06 03:46:52;;;;;;;24.45;20.95;;;13.30;99.90;;;;;;5064481;28;20126;-73
2023/05/06 03:49:19;;;;;;;26.50;20.10;;;13.20;99.90;;;;;;5093985;28;20474;-74
2023/05/06 03:51:45;;;;;;;23.88;19.23;;;13.10;99.90;;;;;;5054590;28;20361;-74
2023/05/06 03:54:11;;;;;;;23.10;19.58;;;12.90;99.90;;;;;;5060445;28;20044;-74
2023/05/06 03:56:36;;;;;;;23.73;19.67;;;13.00;99.90;;;;;;5087111;28;20728;-73
2023/05/06 03:59:02;;;;;;;20.13;17.73;;;12.90;99.90;;;;;;5044150;28;20059;-74
2023/05/06 04:01:28;;;;;;;21.00;16.35;;;13.00;99.90;;;;;;5062440;28;20462;-73
2023/05/06 04:03:55;;;;;;;21.23;18.20;;;13.00;99.90;;;;;;5076742;28;20048;-74
2023/05/06 04:06:21;;;;;;;19.42;16.40;;;12.90;99.90;;;;;;5074211;28;20037;-74
2023/05/06 04:08:46;;;;;;;25.70;19.42;;;12.80;99.90;;;;;;5055342;28;20121;-75
2023/05/06 04:11:12;;;;;;;26.77;19.40;;;12.80;99.90;;;;;;5067679;28;20731;-74
2023/05/06 04:13:38;;;;;;;21.58;18.15;;;12.90;99.90;;;;;;5070848;28;20047;-74
2023/05/06 04:16:04;;;;;;;23.42;18.35;;;13.00;99.90;;;;;;5054610;28;20039;-73
2023/05/06 04:18:31;;;;;;;21.75;18.80;;;13.10;99.90;;;;;;5058331;28;20040;-74
2023/05/06 04:20:57;;;;;;;23.70;17.92;;;13.00;99.90;;;;;;5077651;28;20058;-74
2023/05/06 04:23:22;;;;;;;20.05;16.58;;;13.10;99.90;;;;;;5091084;28;20036;-74
2023/05/06 04:25:48;;;;;;;22.02;17.23;;;13.20;99.90;;;;;;5077909;28;20404;-74
2023/05/06 04:28:17;;;;;;;18.17;14.80;;;13.10;99.90;;;;;;5075444;28;20519;-73
2023/05/06 04:30:43;;;;;;;20.15;16.05;;;13.10;99.90;;;;;;5075770;28;20105;-74
2023/05/06 04:33:11;;;;;;;18.77;15.10;;;13.20;99.90;;;;;;5074049;28;20040;-74
2023/05/06 04:35:37;;;;;;;21.65;16.73;;;13.10;99.90;;;;;;5066731;28;20043;-73
2023/05/06 04:38:03;;;;;;;18.75;15.68;;;13.10;99.90;;;;;;5047193;28;20051;-74
2023/05/06 04:40:29;;;;;;;18.05;14.80;;;13.10;99.90;;;;;;5060568;28;20391;-74
2023/05/06 04:42:55;;;;;;;17.90;14.32;;;13.10;99.90;;;;;;5093533;28;20105;-74
2023/05/06 04:45:23;;;;;;;16.90;13.82;;;13.10;99.90;;;;;;5085225;28;20037;-74
2023/05/06 04:47:49;;;;;;;14.45;11.68;;;13.20;99.90;;;;;;5094108;28;20568;-74
2023/05/06 04:50:15;;;;;;;15.90;12.10;;;13.20;99.90;;;;;;5095171;28;20039;-74
2023/05/06 04:52:40;;;;;;;16.10;13.43;;;13.10;99.90;;;;;;5087418;28;20048;-74
2023/05/06 04:55:07;;;;;;;21.10;16.88;;;13.00;99.90;;;;;;5076848;28;20097;-74
2023/05/06 04:57:33;;;;;;;22.77;15.85;;;12.90;99.90;;;;;;5094449;28;20697;-74
2023/05/06 04:59:58;;;;;;;20.33;15.38;;;13.00;99.90;;;;;;5093582;28;20101;-74
2023/05/06 05:02:24;;;;;;;19.75;17.00;;;13.00;99.90;;;;;;5070910;28;20052;-74
2023/05/06 05:04:50;;;;;;;23.63;18.65;;;13.00;99.90;;;;;;5077254;28;20101;-74
2023/05/06 05:07:16;;;;;;;23.17;18.63;;;12.90;99.90;;;;;;5077017;28;20040;-74
2023/05/06 05:09:42;;;;;;;24.08;18.20;;;12.90;99.90;;;;;;5059926;28;20445;-74
2023/05/06 05:12:07;;;;;;;26.67;19.30;;;12.70;99.90;;;;;;5069429;28;20048;-74
2023/05/06 05:14:34;;;;;;;27.05;19.77;;;12.80;99.90;;;;;;5066040;28;20555;-74
2023/05/06 05:17:00;;;;;;;20.77;17.40;;;12.70;99.90;;;;;;5092474;28;20075;-74
2023/05/06 05:19:26;;;;;;;20.10;16.50;;;12.60;99.90;;;;;;5076419;28;20097;-74
2023/05/06 05:21:51;;;;;;;23.65;18.25;;;12.60;99.90;;;;;;5074176;28;20062;-74
2023/05/06 05:24:17;;;;;;;21.27;16.75;;;12.50;99.90;;;;;;5079362;28;20032;-74
2023/05/06 05:26:43;;;;;;;20.98;17.02;;;12.50;99.90;;;;;;5055761;28;20036;-74
2023/05/06 05:29:09;;;;;;;19.67;14.82;;;12.60;99.90;;;;;;5060938;28;20040;-74
2023/05/06 05:31:34;;;;;;;20.15;16.75;;;12.60;99.90;;;;;;5091520;28;20039;-74
2023/05/06 05:34:00;;;;;;;16.30;14.00;;;12.70;99.90;;;;;;5059304;28;20201;-74
2023/05/06 05:36:26;;;;;;;18.27;15.43;;;12.70;99.90;;;;;;5075435;28;20502;-74
2023/05/06 05:38:52;;;;;;;20.50;15.02;;;12.70;99.90;;;;;;5075156;28;20036;-75
2023/05/06 05:41:18;;;;;;;21.67;14.90;;;12.60;99.90;;;;;;5054092;28;20075;-76
2023/05/06 05:43:43;;;;;;;16.25;13.93;;;12.60;99.90;;;;;;5073831;28;20041;-74
2023/05/06 05:46:09;;;;;;;19.23;15.02;;;12.60;99.90;;;;;;5093072;28;20055;-74
2023/05/06 05:48:36;;;;;;;19.35;15.18;;;12.60;99.90;;;;;;5067929;28;20039;-74
2023/05/06 05:51:02;;;;;;;17.98;14.63;;;12.60;99.90;;;;;;5085455;28;20072;-74
2023/05/06 05:53:28;;;;;;;24.13;16.80;;;12.50;99.90;;;;;;5093279;28;20079;-74
2023/05/06 05:55:54;;;;;;;20.25;14.90;;;12.60;99.90;;;;;;5090830;28;20039;-74
2023/05/06 05:58:20;;;;;;;17.73;13.65;;;12.60;99.90;;;;;;5075081;28;20040;-73
2023/05/06 06:00:45;;;;;;;14.88;12.25;;;12.70;99.90;;;;;;5080545;28;20090;-74
2023/05/06 06:03:11;;;;;;;19.27;14.85;;;12.80;99.90;;;;;;5055869;28;20060;-74
2023/05/06 06:05:37;;;;;;;19.40;14.75;;;12.70;99.90;;;;;;5092774;28;20471;-74
2023/05/06 06:08:03;;;;;;;19.85;16.08;;;12.60;99.90;;;;;;5074585;28;20032;-74
2023/05/06 06:10:29;;;;;;;17.23;14.30;;;12.50;99.90;;;;;;5075605;28;20054;-74
2023/05/06 06:12:56;;;;;;;17.35;14.50;;;12.50;99.90;;;;;;5060689;28;20121;-75
2023/05/06 06:15:22;;;;;;;20.00;15.40;;;12.50;99.90;;;;;;5091281;28;20548;-74
2023/05/06 06:17:47;;;;;;;20.08;14.93;;;12.40;99.90;;;;;;5039207;28;20131;-74
2023/05/06 06:20:13;;;;;;;15.70;13.32;;;12.40;99.90;;;;;;5089436;28;20403;-74
2023/05/06 06:22:39;;;;;;;17.15;13.68;;;12.50;99.90;;;;;;5058747;28;20078;-74
2023/05/06 06:25:07;;;;;;;18.98;14.55;;;12.60;99.90;;;;;;5075183;28;20036;-74
2023/05/06 06:27:39;;;;;;;17.10;13.60;;;12.60;99.90;;;;;;5084814;28;20032;-74
2023/05/06 06:30:06;;;;;;;18.15;14.68;;;12.60;99.90;;;;;;5073564;28;20040;-74
2023/05/06 06:32:32;;;;;;;19.17;15.10;;;12.50;99.90;;;;;;5086651;28;20056;-74
2023/05/06 06:34:58;;;;;;;16.58;13.70;;;12.50;99.90;;;;;;5083019;28;20044;-74
2023/05/06 06:37:24;;;;;;;19.45;15.63;;;12.50;99.90;;;;;;5056979;28;20044;-73
2023/05/06 06:39:49;;;;;;;17.42;14.57;;;12.50;99.90;;;;;;5084974;28;20472;-74
2023/05/06 06:42:15;;;;;;;17.23;14.07;;;12.50;99.90;;;;;;5067421;28;20122;-74
2023/05/06 06:44:42;;;;;;;21.73;16.42;;;12.60;99.90;;;;;;5090245;28;20036;-74
2023/05/06 06:47:08;;;;;;;19.27;15.15;;;12.60;99.90;;;;;;5059056;28;20048;-74
2023/05/06 06:49:34;;;;;;;21.90;17.42;;;12.50;99.90;;;;;;5058544;28;20101;-73
2023/05/06 06:51:59;;;;;;;21.05;16.27;;;12.50;99.90;;;;;;5091797;28;20054;-74
2023/05/06 06:54:25;;;;;;;19.60;16.70;;;12.60;99.90;;;;;;5069847;28;20420;-74
2023/05/06 06:56:57;;;;;;;23.27;17.83;;;12.60;99.90;;;;;;5068249;28;20043;-73
2023/05/06 06:59:23;;;;;;;21.20;15.60;;;12.70;99.90;;;;;;5078302;28;20040;-73
2023/05/06 07:01:49;;;;;;;21.70;17.83;;;12.70;99.90;;;;;;5056443;28;20052;-73
2023/05/06 07:04:15;;;;;;;22.23;18.67;;;12.80;99.90;;;;;;5091563;28;20539;-74
2023/05/06 07:06:40;;;;;;;23.00;18.20;;;12.90;99.90;;;;;;5091673;28;20115;-74
2023/05/06 07:09:06;;;;;;;24.58;19.17;;;12.90;99.90;;;;;;5092110;28;20032;-75
2023/05/06 07:11:32;;;;;;;25.05;19.38;;;12.80;99.90;;;;;;5048926;28;20041;-74
2023/05/06 07:13:58;;;;;;;25.25;19.35;;;12.80;99.90;;;;;;5075193;28;20460;-73
2023/05/06 07:16:23;;;;;;;22.00;18.67;;;12.80;99.90;;;;;;5075008;28;20098;-73
2023/05/06 07:18:52;;;;;;;22.05;19.23;;;12.90;99.90;;;;;;5058560;28;20126;-74
2023/05/06 07:21:17;;;;;;;;;;;12.80;99.90;;;;;;5079194;28;20045;-73
2023/05/06 07:23:43;;;;;;;25.65;20.67;;;13.00;99.90;;;;;;5090429;28;20237;-74
2023/05/06 07:26:10;;;;;;;22.27;18.27;;;12.90;99.90;;;;;;5057305;28;20055;-74
2023/05/06 07:28:36;;;;;;;24.42;20.00;;;13.00;99.90;;;;;;5041263;28;20078;-74
2023/05/06 07:31:03;;;;;;;22.50;19.95;;;12.90;99.90;;;;;;5054898;28;20103;-74
2023/05/06 07:33:28;;;;;;;24.15;20.00;;;12.90;99.90;;;;;;5066946;28;20044;-74
2023/05/06 07:35:54;;;;;;;20.67;18.40;;;12.80;99.90;;;;;;5074580;28;20169;-74
2023/05/06 07:38:21;;;;;;;22.10;18.98;;;12.80;99.90;;;;;;5074552;28;20048;-74
2023/05/06 07:40:48;;;;;;;23.10;17.98;;;13.00;99.90;;;;;;5071366;28;20040;-74
2023/05/06 07:43:13;;;;;;;24.20;19.73;;;12.90;99.90;;;;;;5038118;28;20040;-74
2023/05/06 07:45:40;;;;;;;21.20;17.83;;;12.90;99.90;;;;;;5076960;28;20112;-74
2023/05/06 07:48:06;;;;;;;23.77;20.15;;;12.90;99.90;;;;;;5064969;28;20415;-75
2023/05/06 07:50:31;;;;;;;24.45;19.77;;;13.00;99.90;;;;;;5066934;28;20044;-75
2023/05/06 07:52:59;;;;;;;24.65;19.00;;;12.90;99.90;;;;;;5058338;28;20055;-75
2023/05/06 07:55:25;;;;;;;22.27;18.60;;;13.00;99.90;;;;;;5090548;28;20044;-75
2023/05/06 07:57:51;;;;;;;19.13;16.35;;;13.10;99.90;;;;;;5064972;28;20054;-75
2023/05/06 08:00:17;;;;;;;21.95;18.90;;;13.20;99.90;;;;;;5088344;28;20105;-75
2023/05/06 08:02:43;;;;;;;23.10;18.77;;;13.20;99.90;;;;;;5059291;28;20048;-75
2023/05/06 08:05:09;;;;;;;18.67;16.38;;;13.30;99.90;;;;;;5090805;28;20044;-77
2023/05/06 08:07:36;;;;;;;19.75;17.17;;;13.40;99.90;;;;;;5061909;28;20048;-76
2023/05/06 08:10:02;;;;;;;18.70;15.18;;;13.50;99.90;;;;;;5076471;28;20590;-78
2023/05/06 08:12:28;;;;;;;19.35;16.23;;;13.70;99.90;;;;;;5059477;28;20058;-76
2023/05/06 08:14:54;;;;;;;17.90;15.90;;;13.70;99.90;;;;;;5061813;28;20052;-77
2023/05/06 08:17:22;;;;;;;19.58;16.55;;;13.70;99.90;;;;;;5094137;28;20384;-76
2023/05/06 08:19:48;;;;;;;19.08;15.63;;;13.90;99.90;;;;;;5071237;28;20538;-76
2023/05/06 08:22:15;;;;;;;16.67;14.73;;;13.90;99.90;;;;;;5058522;28;20049;-75
2023/05/06 08:24:40;;;;;;;18.38;15.30;;;14.00;99.90;;;;;;5077880;28;20046;-75
2023/05/06 08:27:06;;;;;;;17.67;14.57;;;14.00;99.90;;;;;;5093425;28;20052;-75
2023/05/06 08:29:32;;;;;;;17.80;14.82;;;13.90;99.90;;;;;;5088449;28;20699;-75
2023/05/06 08:31:57;;;;;;;17.55;14.15;;;13.90;99.90;;;;;;5059876;28;20037;-76
2023/05/06 08:34:23;;;;;;;16.42;13.30;;;14.00;99.90;;;;;;5058518;28;20044;-76
2023/05/06 08:36:49;;;;;;;14.77;12.07;;;14.10;99.90;;;;;;5057155;28;20036;-74
2023/05/06 08:39:15;;;;;;;14.65;12.50;;;14.10;99.90;;;;;;5077434;28;20051;-76
2023/05/06 08:41:43;;;;;;;14.82;11.52;;;14.30;99.90;;;;;;5060453;28;20260;-76
2023/05/06 08:44:09;;;;;;;13.68;11.85;;;14.20;99.90;;;;;;5044904;28;20153;-76
2023/05/06 08:46:35;;;;;;;16.10;12.80;;;14.30;99.90;;;;;;5072593;28;20107;-76
2023/05/06 08:49:01;;;;;;;15.68;13.45;;;14.30;99.90;;;;;;5073260;28;20059;-76
2023/05/06 08:51:31;;;;;;;16.25;14.13;;;14.30;99.90;;;;;;5058333;28;20098;-76
2023/05/06 08:54:00;;;;;;;17.98;13.82;;;14.40;99.90;;;;;;5043888;28;20054;-76
2023/05/06 08:56:27;;;;;;;;;;;14.40;99.90;;;;;;5087180;28;20052;-76
2023/05/06 08:58:52;;;;;;;14.27;12.30;;;14.60;99.90;;;;;;5086024;28;19912;-76
2023/05/06 09:01:18;;;;;;;16.13;12.82;;;14.60;99.90;;;;;;5059589;28;20048;-77
2023/05/06 09:03:44;;;;;;;13.23;10.63;;;14.60;99.90;;;;;;5040704;28;20033;-76
2023/05/06 09:06:10;;;;;;;14.63;10.90;;;14.60;99.90;;;;;;5073426;28;20357;-77
2023/05/06 09:08:36;;;;;;;12.35;10.00;;;14.70;99.90;;;;;;5087962;28;20040;-76
2023/05/06 09:11:01;;;;;;;12.02;9.50;;;14.70;99.90;;;;;;5059881;28;20055;-77
2023/05/06 09:13:27;;;;;;;12.15;9.60;;;14.90;99.90;;;;;;5076425;28;20045;-77
2023/05/06 09:15:54;;;;;;;13.35;11.38;;;15.10;99.90;;;;;;5070605;28;20060;-77
2023/05/06 09:18:19;;;;;;;13.35;10.32;;;15.00;99.90;;;;;;5059471;28;20472;-76
2023/05/06 09:20:46;;;;;;;14.90;11.07;;;15.00;99.90;;;;;;5053694;28;20132;-77
2023/05/06 09:23:14;;;;;;;12.45;9.88;;;14.90;99.90;;;;;;5072093;28;20075;-77
2023/05/06 09:25:41;;;;;;;13.25;9.77;;;15.00;99.90;;;;;;5077805;28;20143;-76
2023/05/06 09:28:11;;;;;;;12.10;8.57;;;15.10;99.90;;;;;;5076399;28;20051;-76
2023/05/06 09:30:40;;;;;;;12.88;9.25;;;15.10;99.90;;;;;;5054076;28;20480;-76
2023/05/06 09:33:06;;;;;;;10.90;9.05;;;15.10;99.90;;;;;;5047441;28;20055;-77
2023/05/06 09:35:41;;;;;;;13.68;9.57;;;15.20;99.90;;;;;;5070637;28;20097;-76
2023/05/06 09:38:07;;;;;;;12.38;10.15;;;15.20;99.90;;;;;;5093833;28;20048;-76
2023/05/06 09:40:41;;;;;;;13.57;11.32;;;15.10;99.90;;;;;;5077122;28;20056;-76
2023/05/06 09:43:08;;;;;;;13.02;10.40;;;15.10;99.90;;;;;;5075685;28;20158;-76
2023/05/06 09:45:34;;;;;;;14.43;11.30;;;15.10;99.90;;;;;;5076826;28;20617;-76
2023/05/06 09:48:00;;;;;;;14.70;9.43;;;15.20;99.90;;;;;;5040234;28;20063;-76
2023/05/06 09:50:26;;;;;;;13.82;9.70;;;15.20;99.90;;;;;;5054507;28;20036;-76
2023/05/06 09:52:51;;;;;;;9.70;8.20;;;15.50;99.90;;;;;;5046446;28;20059;-76
2023/05/06 09:55:21;;;;;;;12.50;8.65;;;15.60;99.90;;;;;;5063547;28;20056;-76
2023/05/06 09:57:48;;;;;;;9.75;8.20;;;15.50;99.90;;;;;;5088119;28;20105;-76
2023/05/06 10:00:15;;;;;;;13.02;9.48;;;15.50;99.90;;;;;;5069054;28;20040;-76
2023/05/06 10:02:41;;;;;;;11.45;9.07;;;15.60;99.90;;;;;;5074443;28;20052;-76
2023/05/06 10:05:08;;;;;;;9.63;7.43;;;15.70;99.90;;;;;;5067134;28;20037;-76
2023/05/06 10:07:34;;;;;;;9.32;7.25;;;16.00;99.90;;;;;;5071302;28;20040;-76
2023/05/06 10:10:06;;;;;;;9.35;7.40;;;16.00;99.90;;;;;;5057472;28;20469;-76
2023/05/06 10:12:32;;;;;;;9.20;6.88;;;15.90;99.90;;;;;;5069810;28;20059;-76
2023/05/06 10:14:57;;;;;;;9.88;7.15;;;15.80;99.90;;;;;;5085530;28;20040;-76
2023/05/06 10:17:25;;;;;;;10.73;7.38;;;15.50;99.90;;;;;;5070559;28;20403;-76
2023/05/06 10:19:54;;;;;;;10.90;8.15;;;15.70;99.90;;;;;;5058811;28;20048;-76
2023/05/06 10:22:39;;;;;;;12.02;8.90;;;15.70;99.90;;;;;;5074048;28;20043;-76
2023/05/06 10:25:31;;;;;;;10.75;7.13;;;15.80;99.90;;;;;;5086984;28;20059;-75
2023/05/06 10:27:57;;;;;;;11.10;7.45;;;15.80;99.90;;;;;;5076076;28;20036;-75
2023/05/06 10:30:23;;;;;;;9.95;7.28;;;15.80;99.90;;;;;;5058332;28;20041;-75
2023/05/06 10:32:48;;;;;;;10.27;7.40;;;15.80;99.90;;;;;;5080053;28;20050;-76
2023/05/06 10:35:24;;;;;;;9.95;6.70;;;16.00;99.90;;;;;;5039296;28;20449;-76
2023/05/06 10:37:49;;;;;;;10.80;8.30;;;16.10;99.90;;;;;;5069203;28;20658;-76
2023/05/06 10:40:15;;;;;;;10.48;7.25;;;16.10;99.90;;;;;;5054930;28;20040;-75
2023/05/06 10:42:41;;;;;;;10.00;6.03;;;16.10;99.90;;;;;;5074799;28;20048;-76
2023/05/06 10:45:08;;;;;;;9.32;6.10;;;16.30;99.90;;;;;;5089750;28;20051;-76
2023/05/06 10:47:56;;;;;;;8.00;6.05;;;16.40;99.90;;;;;;5053418;28;20044;-76
2023/05/06 10:50:25;;;;;;;7.90;6.03;;;16.80;99.90;;;;;;5093581;28;20133;-75
2023/05/06 10:52:54;;;;;;;6.30;4.63;;;16.90;99.90;;;;;;5067090;28;20411;-76
2023/05/06 10:55:32;;;;;;;;;;;17.10;99.90;;;;;;5075488;28;20094;-75
2023/05/06 10:58:02;;;;;;;7.30;4.45;;;17.40;99.90;;;;;;5093323;28;20333;-75
2023/05/06 11:00:33;;;;;;;6.70;4.50;;;17.60;99.90;;;;;;5089237;28;20154;-76
2023/05/06 11:03:10;;;;;;;8.23;5.30;;;17.60;99.90;;;;;;5086214;28;20116;-75
2023/05/06 11:05:48;;;;;;;8.57;5.15;;;17.50;99.90;;;;;;5057400;28;20391;-76
2023/05/06 11:08:21;;;;;;;6.60;4.75;;;17.40;99.90;;;;;;5071592;28;20105;-76
2023/05/06 11:10:48;;;;;;;7.00;4.93;;;17.40;99.90;;;;;;5074283;28;20044;-76
2023/05/06 11:13:27;;;;;;;11.20;5.38;;;17.40;99.90;;;;;;5073030;28;20074;-76
2023/05/06 11:15:54;;;;;;;7.55;4.68;;;17.50;99.90;;;;;;5036167;28;20479;-76
2023/05/06 11:18:26;;;;;;;6.40;4.50;;;17.80;99.90;;;;;;5036342;28;20044;-76
2023/05/06 11:21:01;;;;;;;5.45;3.85;;;18.00;99.90;;;;;;5085013;28;20048;-75
2023/05/06 11:23:51;;;;;;;6.25;3.85;;;17.90;99.90;;;;;;5091557;28;20074;-76
2023/05/06 11:26:17;;;;;;;5.93;3.65;;;17.80;99.90;;;;;;5094070;28;20262;-76
2023/05/06 11:28:47;;;;;;;6.28;3.80;;;17.90;99.90;;;;;;5058822;28;20036;-77
2023/05/06 11:31:13;;;;;;;8.13;3.88;;;17.90;99.90;;;;;;5089200;28;20396;-76
2023/05/06 11:33:45;;;;;;;5.30;4.05;;;17.80;99.90;;;;;;5059332;28;20044;-76
2023/05/06 11:36:18;;;;;;;7.47;3.90;;;17.80;99.90;;;;;;5078234;28;20044;-76
2023/05/06 11:38:50;;;;;;;6.63;3.75;;;17.80;99.90;;;;;;5090095;28;20046;-76
2023/05/06 11:41:16;;;;;;;6.20;4.13;;;17.90;99.90;;;;;;5065233;28;20055;-76
2023/05/06 11:43:50;;;;;;;5.30;3.78;;;18.00;99.90;;;;;;5075000;28;20039;-76
2023/05/06 11:46:18;;;;;;;7.03;3.65;;;18.00;99.90;;;;;;5073700;28;20037;-76
2023/05/06 11:48:47;;;;;;;7.00;3.90;;;18.00;99.90;;;;;;5073285;28;20068;-76
2023/05/06 11:51:21;;;;;;;5.35;3.55;;;18.00;99.90;;;;;;5073544;28;20079;-76
2023/05/06 11:53:47;;;;;;;5.07;3.45;;;17.90;99.90;;;;;;5062989;28;20048;-76
2023/05/06 11:56:12;;;;;;;6.45;3.60;;;17.90;99.90;;;;;;5076787;28;20523;-76
2023/05/06 11:58:38;;;;;;;7.10;3.70;;;17.80;99.90;;;;;;5041961;28;20517;-76
2023/05/06 12:01:04;;;;;;;9.70;4.47;;;17.80;99.90;;;;;;5076440;28;20123;-76
2023/05/06 12:03:31;;;;;;;6.88;4.78;;;17.80;99.90;;;;;;5089469;28;20051;-75
2023/05/06 12:05:57;;;;;;;10.82;6.07;;;17.80;99.90;;;;;;5077729;28;20161;-76
2023/05/06 12:08:28;;;;;;;9.00;6.10;;;17.80;99.90;;;;;;5065964;28;20048;-75
2023/05/06 12:11:00;;;;;;;11.07;6.05;;;17.80;99.90;;;;;;5059715;28;20132;-77
2023/05/06 12:13:26;;;;;;;10.57;5.97;;;17.70;99.90;;;;;;5062041;28;20067;-75
2023/05/06 12:15:58;;;;;;;6.45;5.15;;;17.70;99.90;;;;;;5061981;28;20044;-76
2023/05/06 12:18:24;;;;;;;7.43;5.20;;;17.70;99.90;;;;;;5077773;28;20044;-76
2023/05/06 12:20:53;;;;;;;9.95;5.60;;;17.70;99.90;;;;;;5059193;28;20041;-76
2023/05/06 12:23:20;;;;;;;8.82;5.40;;;17.70;99.90;;;;;;5036915;28;20048;-77
2023/05/06 12:26:02;;;;;;;7.57;5.05;;;17.80;99.90;;;;;;5075289;28;20052;-78
2023/05/06 12:28:29;;;;;;;10.80;4.85;;;17.80;99.90;;;;;;5088332;28;20041;-76
2023/05/06 12:30:55;;;;;;;10.50;4.75;;;18.00;99.90;;;;;;5067106;28;20051;-75